createdAt,value
2018-11-05T00:01:32.337Z,21.83
2018-11-05T00:04:00.931Z,22.70
2018-11-05T00:06:29.573Z,26.00
2018-11-05T00:08:58.266Z,24.98
2018-11-05T00:11:26.922Z,21.70
2018-11-05T00:13:55.480Z,24.27
2018-11-05T00:16:24.025Z,24.03
2018-11-05T00:18:52.878Z,23.10
2018-11-05T00:21:21.409Z,23.30
2018-11-05T00:23:49.996Z,22.23
2018-11-05T00:26:18.693Z,25.80
2018-11-05T00:28:47.245Z,24.27
2018-11-05T00:31:15.813Z,24.33
2018-11-05T00:33:44.490Z,25.17
2018-11-05T00:36:13.138Z,23.60
2018-11-05T00:38:41.662Z,25.07
2018-11-05T00:41:10.198Z,22.87
2018-11-05T00:43:38.773Z,23.70
2018-11-05T00:46:07.901Z,24.70
2018-11-05T00:48:36.417Z,24.50
2018-11-05T00:51:05.423Z,23.27
2018-11-05T00:53:33.954Z,23.63
2018-11-05T00:56:02.534Z,24.50
2018-11-05T00:58:31.041Z,24.03
2018-11-05T01:00:59.801Z,22.70
2018-11-05T01:03:28.410Z,25.60
2018-11-05T01:05:57.022Z,23.00
2018-11-05T01:08:25.572Z,23.67
2018-11-05T01:10:54.121Z,23.40
2018-11-05T01:13:22.715Z,23.93
2018-11-05T01:15:51.277Z,24.07
2018-11-05T01:18:19.838Z,25.33
2018-11-05T01:20:48.562Z,24.97
2018-11-05T01:23:17.097Z,26.30
2018-11-05T01:25:45.745Z,26.40
2018-11-05T01:28:14.257Z,25.27
2018-11-05T01:30:42.779Z,24.53
2018-11-05T01:33:11.471Z,22.77
2018-11-05T01:35:40.061Z,26.33
2018-11-05T01:38:08.625Z,25.20
2018-11-05T01:40:37.198Z,24.40
2018-11-05T01:43:05.797Z,24.77
2018-11-05T01:45:34.334Z,24.73
2018-11-05T01:48:03.357Z,25.57
2018-11-05T01:50:31.914Z,22.27
2018-11-05T01:53:00.484Z,24.40
2018-11-05T01:55:29.050Z,24.00
2018-11-05T01:57:57.613Z,24.50
2018-11-05T02:00:26.178Z,24.57
2018-11-05T02:02:54.774Z,22.80
2018-11-05T02:05:23.325Z,22.23
2018-11-05T02:07:51.910Z,25.23
2018-11-05T02:10:20.551Z,21.47
2018-11-05T02:12:49.049Z,24.43
2018-11-05T02:15:17.604Z,23.23
2018-11-05T02:17:46.800Z,23.93
2018-11-05T02:20:16.476Z,23.30
2018-11-05T02:22:45.034Z,24.40
2018-11-05T02:25:14.060Z,24.83
2018-11-05T02:27:43.005Z,27.65
2018-11-05T02:30:14.082Z,26.87
2018-11-05T02:32:42.717Z,25.52
2018-11-05T02:35:12.581Z,24.63
2018-11-05T02:37:41.966Z,24.80
2018-11-05T02:40:13.580Z,25.67
2018-11-05T02:42:43.015Z,24.83
2018-11-05T02:45:12.838Z,26.62
2018-11-05T02:47:41.374Z,24.50
2018-11-05T02:50:11.514Z,25.97
2018-11-05T02:52:41.135Z,26.63
2018-11-05T02:55:10.105Z,26.17
2018-11-05T02:57:38.717Z,26.70
2018-11-05T03:00:10.803Z,26.95
2018-11-05T03:02:39.471Z,26.02
2018-11-05T03:05:10.493Z,25.77
2018-11-05T03:07:39.046Z,25.50
2018-11-05T03:10:09.900Z,25.77
2018-11-05T03:12:39.085Z,26.20
2018-11-05T03:15:09.007Z,27.62
2018-11-05T03:17:38.003Z,26.68
2018-11-05T03:20:07.772Z,23.40
2018-11-05T03:22:36.509Z,26.87
2018-11-05T03:25:05.286Z,24.60
2018-11-05T03:27:34.080Z,25.43
2018-11-05T03:30:02.892Z,26.60
2018-11-05T03:32:31.474Z,25.20
2018-11-05T03:35:00.026Z,26.75
2018-11-05T03:37:28.557Z,26.42
2018-11-05T03:39:57.104Z,25.15
2018-11-05T03:42:25.630Z,26.37
2018-11-05T03:44:54.213Z,25.27
2018-11-05T03:47:22.737Z,30.57
2018-11-05T03:49:51.315Z,28.10
2018-11-05T03:52:19.881Z,26.48
2018-11-05T03:54:48.482Z,26.60
2018-11-05T03:57:17.005Z,29.07
2018-11-05T03:59:45.574Z,28.77
2018-11-05T04:02:14.169Z,28.50
2018-11-05T04:04:43.013Z,27.40
2018-11-05T04:07:11.529Z,28.83
2018-11-05T04:09:40.105Z,28.17
2018-11-05T04:12:08.649Z,27.00
2018-11-05T04:14:37.378Z,30.00
2018-11-05T04:17:06.441Z,28.27
2018-11-05T04:19:34.972Z,28.55
2018-11-05T04:22:03.544Z,28.30
2018-11-05T04:24:32.088Z,25.85
2018-11-05T04:27:00.678Z,27.87
2018-11-05T04:29:29.209Z,28.13
2018-11-05T04:31:58.472Z,26.33
2018-11-05T04:34:27.030Z,28.43
2018-11-05T04:36:55.557Z,27.07
2018-11-05T04:39:24.108Z,26.57
2018-11-05T04:41:52.672Z,27.27
2018-11-05T04:44:21.263Z,27.80
2018-11-05T04:46:49.886Z,25.40
2018-11-05T04:49:18.596Z,27.20
2018-11-05T04:51:47.247Z,27.90
2018-11-05T04:54:15.794Z,27.03
2018-11-05T04:56:44.340Z,27.27
2018-11-05T04:59:12.886Z,26.90
2018-11-05T05:01:41.428Z,27.80
2018-11-05T05:04:10.307Z,26.70
2018-11-05T05:06:38.829Z,25.90
2018-11-05T05:09:10.563Z,26.43
2018-11-05T05:11:39.107Z,27.37
2018-11-05T05:14:07.933Z,25.60
2018-11-05T05:16:37.109Z,27.13
2018-11-05T05:19:05.714Z,29.97
2018-11-05T05:21:34.240Z,27.10
2018-11-05T05:24:03.369Z,31.47
2018-11-05T05:26:31.949Z,30.90
2018-11-05T05:29:00.651Z,29.13
2018-11-05T05:31:29.189Z,31.13
2018-11-05T05:33:57.746Z,28.60
2018-11-05T05:36:26.305Z,29.70
2018-11-05T05:38:54.869Z,31.87
2018-11-05T05:41:23.440Z,29.67
2018-11-05T05:43:52.045Z,29.77
2018-11-05T05:46:20.649Z,29.87
2018-11-05T05:48:49.258Z,28.10
2018-11-05T05:51:17.872Z,28.10
2018-11-05T05:53:46.485Z,28.33
2018-11-05T05:56:15.074Z,26.73
2018-11-05T05:58:43.601Z,26.97
2018-11-05T06:01:12.193Z,26.73
2018-11-05T06:03:40.759Z,29.40
2018-11-05T06:06:09.844Z,29.47
2018-11-05T06:08:38.286Z,27.37
2018-11-05T06:11:06.850Z,27.80
2018-11-05T06:13:35.647Z,27.10
2018-11-05T06:16:04.396Z,27.67
2018-11-05T06:18:32.886Z,28.47
2018-11-05T06:21:01.553Z,30.47
2018-11-05T06:23:30.063Z,27.17
2018-11-05T06:25:58.675Z,28.38
2018-11-05T06:28:27.302Z,29.53
2018-11-05T06:30:55.901Z,29.50
2018-11-05T06:33:24.495Z,28.20
2018-11-05T06:35:53.218Z,30.47
2018-11-05T06:38:22.098Z,30.83
2018-11-05T06:40:51.336Z,30.50
2018-11-05T06:43:19.930Z,30.90
2018-11-05T06:45:48.522Z,27.70
2018-11-05T06:48:17.078Z,27.57
2018-11-05T06:50:45.636Z,26.37
2018-11-05T06:53:14.312Z,28.20
2018-11-05T06:55:42.872Z,28.40
2018-11-05T06:58:11.623Z,27.10
2018-11-05T07:00:40.260Z,28.90
2018-11-05T07:03:08.863Z,28.00
2018-11-05T07:05:37.426Z,29.13
2018-11-05T07:08:06.518Z,29.70
2018-11-05T07:10:35.920Z,30.30
2018-11-05T07:13:04.538Z,30.37
2018-11-05T07:15:33.121Z,30.53
2018-11-05T07:18:01.688Z,28.87
2018-11-05T07:20:30.232Z,30.40
2018-11-05T07:22:58.773Z,31.70
2018-11-05T07:25:28.234Z,32.17
2018-11-05T07:27:56.961Z,32.37
2018-11-05T07:30:25.505Z,31.77
2018-11-05T07:32:55.237Z,32.37
2018-11-05T07:35:23.789Z,29.57
2018-11-05T07:37:52.353Z,30.60
2018-11-05T07:40:21.278Z,31.33
2018-11-05T07:42:49.796Z,30.33
2018-11-05T07:45:19.806Z,31.90
2018-11-05T07:47:48.670Z,30.50
2018-11-05T07:50:18.429Z,28.07
2018-11-05T07:52:47.167Z,26.93
2018-11-05T07:55:17.010Z,26.40
2018-11-05T07:57:46.613Z,27.23
2018-11-05T08:00:21.494Z,27.03
2018-11-05T08:02:51.999Z,25.10
2018-11-05T08:05:21.585Z,24.93
2018-11-05T08:07:50.712Z,25.53
2018-11-05T08:10:19.306Z,28.60
2018-11-05T08:12:47.956Z,26.40
2018-11-05T08:15:19.701Z,27.70
2018-11-05T08:17:49.510Z,24.83
2018-11-05T08:20:18.062Z,26.27
2018-11-05T08:22:46.577Z,26.20
2018-11-05T08:25:15.961Z,25.93
2018-11-05T08:27:44.541Z,26.90
2018-11-05T08:30:17.641Z,25.73
2018-11-05T08:32:46.166Z,25.37
2018-11-05T08:35:15.107Z,27.73
2018-11-05T08:37:44.902Z,27.07
2018-11-05T08:40:18.662Z,26.93
2018-11-05T08:42:48.110Z,26.53
2018-11-05T08:45:18.552Z,27.03
2018-11-05T08:47:47.551Z,25.57
2018-11-05T08:50:17.560Z,26.07
2018-11-05T08:52:46.022Z,27.13
2018-11-05T08:55:18.624Z,27.87
2018-11-05T08:57:47.262Z,28.67
2018-11-05T09:00:47.413Z,29.10
2018-11-05T09:03:16.103Z,28.50
2018-11-05T09:05:44.779Z,26.70
2018-11-05T09:08:13.972Z,26.07
2018-11-05T09:10:42.804Z,26.80
2018-11-05T09:13:11.145Z,27.73
2018-11-05T09:15:39.723Z,28.93
2018-11-05T09:18:08.286Z,27.17
2018-11-05T09:20:36.932Z,26.37
2018-11-05T09:23:05.796Z,25.00
2018-11-05T09:25:34.477Z,25.90
2018-11-05T09:28:03.206Z,27.90
2018-11-05T09:30:31.668Z,27.87
2018-11-05T09:33:00.231Z,27.10
2018-11-05T09:35:28.873Z,27.47
2018-11-05T09:37:57.443Z,28.17
2018-11-05T09:40:26.098Z,27.20
2018-11-05T09:42:54.787Z,26.93
2018-11-05T09:45:25.682Z,27.90
2018-11-05T09:47:54.225Z,31.70
2018-11-05T09:50:22.818Z,27.90
2018-11-05T09:52:51.368Z,26.07
2018-11-05T09:55:20.205Z,24.90
2018-11-05T09:57:48.753Z,25.70
2018-11-05T10:00:20.116Z,27.70
2018-11-05T10:02:54.193Z,26.60
2018-11-05T10:05:22.703Z,29.37
2018-11-05T10:07:51.189Z,30.00
2018-11-05T10:10:19.955Z,31.40
2018-11-05T10:12:48.479Z,31.93
2018-11-05T10:15:17.977Z,31.50
2018-11-05T10:17:46.515Z,32.53
2018-11-05T10:20:17.252Z,30.80
2018-11-05T10:22:46.291Z,30.07
2018-11-05T10:25:15.309Z,28.30
2018-11-05T10:27:44.173Z,29.40
2018-11-05T10:30:16.340Z,27.27
2018-11-05T10:32:45.105Z,29.93
2018-11-05T10:35:14.353Z,26.20
2018-11-05T10:37:43.018Z,26.80
2018-11-05T10:40:13.773Z,27.27
2018-11-05T10:42:43.261Z,28.73
2018-11-05T10:45:13.470Z,26.30
2018-11-05T10:47:42.161Z,26.93
2018-11-05T10:50:12.608Z,27.87
2018-11-05T10:52:41.655Z,28.37
2018-11-05T10:55:10.421Z,26.20
2018-11-05T10:57:39.533Z,26.70
2018-11-05T11:00:15.305Z,25.10
2018-11-05T11:02:48.065Z,26.70
2018-11-05T11:05:16.896Z,26.37
2018-11-05T11:07:45.588Z,24.70
2018-11-05T11:10:14.137Z,24.67
2018-11-05T11:12:42.750Z,25.67
2018-11-05T11:15:11.325Z,25.13
2018-11-05T11:17:40.197Z,26.07
2018-11-05T11:20:10.313Z,25.43
2018-11-05T11:22:39.285Z,25.00
2018-11-05T11:25:08.687Z,25.70
2018-11-05T11:27:37.713Z,23.83
2018-11-05T11:30:08.086Z,24.33
2018-11-05T11:32:36.686Z,26.20
2018-11-05T11:35:06.212Z,23.93
2018-11-05T11:37:34.800Z,24.43
2018-11-05T11:40:03.729Z,25.63
2018-11-05T11:42:32.266Z,25.87
2018-11-05T11:45:00.984Z,27.53
2018-11-05T11:47:29.508Z,27.10
2018-11-05T11:49:58.242Z,27.80
2018-11-05T11:52:26.893Z,27.27
2018-11-05T11:54:55.484Z,25.50
2018-11-05T11:57:24.128Z,26.20
2018-11-05T11:59:52.701Z,26.20
2018-11-05T12:02:21.271Z,26.53
2018-11-05T12:04:49.920Z,27.67
2018-11-05T12:07:18.465Z,25.03
2018-11-05T12:09:47.158Z,26.47
2018-11-05T12:12:15.877Z,27.80
2018-11-05T12:14:44.836Z,26.60
2018-11-05T12:17:13.297Z,25.20
2018-11-05T12:19:41.885Z,27.00
2018-11-05T12:22:10.438Z,27.33
2018-11-05T12:24:39.054Z,28.03
2018-11-05T12:27:07.591Z,27.10
2018-11-05T12:29:36.194Z,29.17
2018-11-05T12:32:05.222Z,29.40
2018-11-05T12:34:34.180Z,25.30
2018-11-05T12:37:02.738Z,24.23
2018-11-05T12:39:31.290Z,24.37
2018-11-05T12:41:59.965Z,26.43
2018-11-05T12:44:28.634Z,24.77
2018-11-05T12:46:57.570Z,25.37
2018-11-05T12:49:26.140Z,24.53
2018-11-05T12:51:54.750Z,24.37
2018-11-05T12:54:23.286Z,24.40
2018-11-05T12:56:51.841Z,23.97
2018-11-05T12:59:20.400Z,23.70
2018-11-05T13:01:49.002Z,25.20
2018-11-05T13:04:17.636Z,23.53
2018-11-05T13:06:46.291Z,21.50
2018-11-05T13:09:14.798Z,22.17
2018-11-05T13:11:43.462Z,20.03
2018-11-05T13:14:12.196Z,20.87
2018-11-05T13:16:40.709Z,22.03
2018-11-05T13:19:09.269Z,20.83
2018-11-05T13:21:37.815Z,19.80
2018-11-05T13:24:06.715Z,20.60
2018-11-05T13:26:35.371Z,21.63
2018-11-05T13:29:04.046Z,20.70
2018-11-05T13:31:32.600Z,20.77
2018-11-05T13:34:01.166Z,21.43
2018-11-05T13:36:29.740Z,20.07
2018-11-05T13:38:58.346Z,18.63
2018-11-05T13:41:27.072Z,18.63
2018-11-05T13:43:56.809Z,19.13
2018-11-05T13:46:25.657Z,20.23
2018-11-05T13:48:54.662Z,17.80
2018-11-05T13:51:22.612Z,18.80
2018-11-05T13:53:51.199Z,19.73
2018-11-05T13:56:19.960Z,18.40
2018-11-05T13:58:48.489Z,18.30
2018-11-05T14:01:17.045Z,18.97
2018-11-05T14:03:45.817Z,18.30
2018-11-05T14:06:14.449Z,17.97
2018-11-05T14:08:43.098Z,18.27
2018-11-05T14:11:11.698Z,17.70
2018-11-05T14:13:40.378Z,17.60
2018-11-05T14:16:08.959Z,18.23
2018-11-05T14:18:37.798Z,16.47
2018-11-05T14:21:07.168Z,15.33
2018-11-05T14:23:35.726Z,13.80
2018-11-05T14:26:04.469Z,15.60
2018-11-05T14:28:33.159Z,17.13
2018-11-05T14:31:01.542Z,16.83
2018-11-05T14:33:30.281Z,16.10
2018-11-05T14:35:58.972Z,17.93
2018-11-05T14:38:27.622Z,15.57
2018-11-05T14:40:56.258Z,16.27
2018-11-05T14:43:24.979Z,19.57
2018-11-05T14:45:53.535Z,18.57
2018-11-05T14:48:22.066Z,19.33
2018-11-05T14:50:50.966Z,22.43
2018-11-05T14:53:19.306Z,22.07
2018-11-05T14:55:47.883Z,18.57
2018-11-05T14:58:16.509Z,20.37
2018-11-05T15:00:45.087Z,19.90
2018-11-05T15:03:13.679Z,18.73
2018-11-05T15:05:42.329Z,21.53
2018-11-05T15:08:11.158Z,19.30
2018-11-05T15:10:39.849Z,20.40
2018-11-05T15:13:08.458Z,19.17
2018-11-05T15:15:37.049Z,20.10
2018-11-05T15:18:06.002Z,18.93
2018-11-05T15:20:34.693Z,18.07
2018-11-05T15:23:03.236Z,20.70
2018-11-05T15:25:31.941Z,17.40
2018-11-05T15:28:00.458Z,17.10
2018-11-05T15:30:29.088Z,17.40
2018-11-05T15:32:57.842Z,17.33
2018-11-05T15:35:26.398Z,18.63
2018-11-05T15:37:54.933Z,18.07
2018-11-05T15:40:24.658Z,18.03
2018-11-05T15:42:53.259Z,16.07
2018-11-05T15:45:22.479Z,18.57
2018-11-05T15:47:51.041Z,17.90
2018-11-05T15:50:20.588Z,17.50
2018-11-05T15:52:49.701Z,18.00
2018-11-05T15:55:18.459Z,18.27
2018-11-05T15:57:47.071Z,17.60
2018-11-05T16:00:25.745Z,18.40
2018-11-05T16:02:57.590Z,18.33
2018-11-05T16:05:26.206Z,18.87
2018-11-05T16:07:54.892Z,18.20
2018-11-05T16:10:23.674Z,18.47
2018-11-05T16:12:52.267Z,17.00
2018-11-05T16:15:20.827Z,16.80
2018-11-05T16:17:49.486Z,17.37
2018-11-05T16:20:19.306Z,17.77
2018-11-05T16:22:48.915Z,18.03
2018-11-05T16:25:17.682Z,18.20
2018-11-05T16:27:46.429Z,17.20
2018-11-05T16:30:16.685Z,18.20
2018-11-05T16:32:45.838Z,17.20
2018-11-05T16:35:14.556Z,32.27
2018-11-05T16:37:43.373Z,31.00
2018-11-05T16:40:16.916Z,22.23
2018-11-05T16:42:46.750Z,22.90
2018-11-05T16:45:15.440Z,32.90
2018-11-05T16:47:44.284Z,33.60
2018-11-05T16:50:16.783Z,35.27
2018-11-05T16:52:45.401Z,34.07
2018-11-05T16:55:14.694Z,34.07
2018-11-05T16:57:43.892Z,34.23
2018-11-05T17:00:13.005Z,36.43
2018-11-05T17:02:42.283Z,38.03
2018-11-05T17:05:10.622Z,33.10
2018-11-05T17:07:39.565Z,34.13
2018-11-05T17:10:09.477Z,34.60
2018-11-05T17:12:38.106Z,48.43
2018-11-05T17:15:08.842Z,37.97
2018-11-05T17:17:37.779Z,34.10
2018-11-05T17:20:08.765Z,31.10
2018-11-05T17:22:37.581Z,31.07
2018-11-05T17:25:07.015Z,27.60
2018-11-05T17:27:35.621Z,24.80
2018-11-05T17:30:04.850Z,21.77
2018-11-05T17:32:33.461Z,19.83
2018-11-05T17:35:02.052Z,20.60
2018-11-05T17:37:30.654Z,22.37
2018-11-05T17:39:59.291Z,27.10
2018-11-05T17:42:28.001Z,29.77
2018-11-05T17:44:56.524Z,29.23
2018-11-05T17:47:25.081Z,28.90
2018-11-05T17:49:53.661Z,27.90
2018-11-05T17:52:22.283Z,27.17
2018-11-05T17:54:51.030Z,29.45
2018-11-05T17:57:19.695Z,28.75
2018-11-05T17:59:48.301Z,28.00
2018-11-05T18:02:22.191Z,24.87
2018-11-05T18:04:51.990Z,24.43
2018-11-05T18:07:20.801Z,27.77
2018-11-05T18:09:49.385Z,27.77
2018-11-05T18:12:17.949Z,23.73
2018-11-05T18:14:46.490Z,24.13
2018-11-05T18:17:15.146Z,22.63
2018-11-05T18:19:43.904Z,22.53
2018-11-05T18:22:12.713Z,24.20
2018-11-05T18:24:42.078Z,22.80
2018-11-05T18:27:10.704Z,29.40
2018-11-05T18:29:39.423Z,23.22
2018-11-05T18:32:08.019Z,25.60
2018-11-05T18:34:36.583Z,24.02
2018-11-05T18:37:05.144Z,23.95
2018-11-05T18:39:33.742Z,22.67
2018-11-05T18:42:02.557Z,25.70
2018-11-05T18:44:31.167Z,39.23
2018-11-05T18:47:00.012Z,39.92
2018-11-05T18:49:28.642Z,32.95
2018-11-05T18:51:57.346Z,25.85
2018-11-05T18:54:26.236Z,23.25
2018-11-05T18:56:55.055Z,24.05
2018-11-05T18:59:23.785Z,22.70
2018-11-05T19:01:52.461Z,25.15
2018-11-05T19:04:21.302Z,25.48
2018-11-05T19:06:50.224Z,24.20
2018-11-05T19:09:18.856Z,23.32
2018-11-05T19:11:47.512Z,23.35
2018-11-05T19:14:16.573Z,24.00
2018-11-05T19:16:45.203Z,23.62
2018-11-05T19:19:13.940Z,25.10
2018-11-05T19:21:42.607Z,23.62
2018-11-05T19:24:11.325Z,23.20
2018-11-05T19:26:39.930Z,27.73
2018-11-05T19:29:09.295Z,24.40
2018-11-05T19:31:38.914Z,27.52
2018-11-05T20:02:58.172Z,20.65
2018-11-05T20:05:26.833Z,19.82
2018-11-05T20:07:56.556Z,19.40
2018-11-05T20:10:25.170Z,19.75
2018-11-05T20:12:53.790Z,21.27
2018-11-05T20:15:22.514Z,23.77
2018-11-05T20:17:52.315Z,23.20
2018-11-05T20:20:22.132Z,24.70
2018-11-05T20:22:50.888Z,21.82
2018-11-05T20:25:19.493Z,22.05
2018-11-05T20:27:48.153Z,21.60
2018-11-05T20:30:18.887Z,24.98
2018-11-05T20:32:48.815Z,23.57
2018-11-05T20:35:17.199Z,24.45
2018-11-05T20:37:45.917Z,21.80
2018-11-05T20:40:15.951Z,23.80
2018-11-05T20:42:45.705Z,24.87
2018-11-05T20:45:14.951Z,25.12
2018-11-05T20:47:43.796Z,27.25
2018-11-05T20:50:13.299Z,27.87
2018-11-05T20:52:41.865Z,28.07
2018-11-05T20:55:11.996Z,29.82
2018-11-05T20:57:41.173Z,30.30
2018-11-05T21:00:11.764Z,33.08
2018-11-05T21:02:41.118Z,30.77
2018-11-05T21:05:09.697Z,30.72
2018-11-05T21:07:39.021Z,30.75
2018-11-05T21:10:09.232Z,29.87
2018-11-05T21:12:38.397Z,31.82
2018-11-05T21:15:07.899Z,34.10
2018-11-05T21:17:36.637Z,25.48
2018-11-05T21:20:05.308Z,25.25
2018-11-05T21:22:34.097Z,22.07
2018-11-05T21:25:02.553Z,21.90
2018-11-05T21:27:31.141Z,21.42
2018-11-05T21:29:59.712Z,22.50
2018-11-05T21:32:28.347Z,23.22
2018-11-05T21:34:56.958Z,31.62
2018-11-05T21:37:25.569Z,33.88
2018-11-05T21:39:54.116Z,50.45
2018-11-05T21:42:22.666Z,38.63
2018-11-05T21:44:51.318Z,34.03
2018-11-05T21:47:20.068Z,39.45
2018-11-05T21:49:48.745Z,39.45
2018-11-05T21:52:17.319Z,34.15
2018-11-05T21:54:46.042Z,33.73
2018-11-05T21:57:14.807Z,36.45
2018-11-05T21:59:43.389Z,34.27
2018-11-05T22:02:11.971Z,31.73
2018-11-05T22:04:40.577Z,23.15
2018-11-05T22:07:09.153Z,27.20
2018-11-05T22:09:37.827Z,29.57
2018-11-05T22:12:06.705Z,31.73
2018-11-05T22:14:35.314Z,32.78
2018-11-05T22:17:03.929Z,30.57
2018-11-05T22:19:32.588Z,26.70
2018-11-05T22:22:01.137Z,24.07
2018-11-05T22:24:29.858Z,24.37
2018-11-05T22:26:58.428Z,24.98
2018-11-05T22:29:27.037Z,21.20
2018-11-05T22:31:55.998Z,22.10
2018-11-05T22:34:24.654Z,25.00
2018-11-05T22:36:53.245Z,21.90
2018-11-05T22:39:21.789Z,25.30
2018-11-05T22:41:50.465Z,24.90
2018-11-05T22:44:19.052Z,25.82
2018-11-05T22:46:47.602Z,24.35
2018-11-05T22:49:16.171Z,26.42
2018-11-05T22:51:44.887Z,27.42
2018-11-05T22:54:13.533Z,23.83
2018-11-05T22:56:42.181Z,20.72
2018-11-05T22:59:10.834Z,23.20
2018-11-05T23:01:44.849Z,22.95
2018-11-05T23:04:13.569Z,21.68
2018-11-05T23:06:42.190Z,21.50
2018-11-05T23:09:10.721Z,21.42
2018-11-05T23:11:39.291Z,21.07
2018-11-05T23:14:07.858Z,22.20
2018-11-05T23:16:36.619Z,21.40
2018-11-05T23:19:05.729Z,20.30
2018-11-05T23:21:34.517Z,21.10
2018-11-05T23:24:03.103Z,22.00
2018-11-05T23:26:31.765Z,20.82
2018-11-05T23:29:00.357Z,20.45
2018-11-05T23:31:28.906Z,20.95
2018-11-05T23:33:57.523Z,22.07
2018-11-05T23:36:26.059Z,20.70
2018-11-05T23:38:54.793Z,21.60
2018-11-05T23:41:23.322Z,20.05
2018-11-05T23:43:51.897Z,20.75
2018-11-05T23:46:20.441Z,21.17
2018-11-05T23:48:49.016Z,22.73
2018-11-05T23:51:17.567Z,20.90
2018-11-05T23:53:46.090Z,22.58
2018-11-05T23:56:14.665Z,21.35
2018-11-05T23:58:43.203Z,20.90
